メインページ
METAR-TAF:

METAR-TAF

空港 :

モントリオール・ミラベル国際空港

モントリオール・ミラベル, ケベック州, カナダ

緯度: 45-41N, 経度: 074-02W, 海抜: 82m

現時点の気象観測

当レポートは17分前の07:00(UTC)に作成
変向風 2kt
気温 22°C
湿度 78%
気圧 1018 hPa
視程: 40.2km
高度8000ftの雲はほとんどない
高度14000ftの千切れ雲あり

METAR: CYMX 270700Z VRB02KT 25SM FEW080 BKN140 22/18 A3006 RMK AC2AC4 SLP180 DENSITY ALT 1100FT

時間: 03:17 (07:17 UTC)

予報

当レポートは1時間39分前の05:38(UTC)に作成
予報は27日の 06時(UTC)から 28日の 06時(UTC)まで有効
変向風 3kt
視程: 10km
高度10000ftの雲はほとんどない
高度15000ftの雲は散在している
確率 30%
27日の 09時(UTC)から 27日の 12時(UTC)まで
視程: 1.6km
27日の 1500時(UTC)から
南/南西の風 10kt
視程: 10km
高度6000ftの雲は散在している
27日の 18時(UTC)から 27日の 23時(UTC)まで一時的に
視程: 10km
高度6000ftの千切れ雲あり
弱いにわか雨
28日の 0000時(UTC)から
南西の風 5kt
視程: 10km
高度6000ftの雲は散在している
28日の 0300時(UTC)から
南西の風 5kt
視程: 10km
高度6000ftの千切れ雲あり

TAF: CYMX 270538Z 2706/2806 VRB03KT P6SM FEW100 SCT150 PROB30 2709/2712 1SM BR FM271500 21010KT P6SM SCT060 TEMPO 2718/2723 P6SM -SHRA BKN060 FM280000 22005KT P6SM SCT060 FM280300 23005KT P6SM BKN060 RMK NXT FCST BY 271200Z

4,000以上の空港の気象観測と天気予報(METAR報とTAF報)

利用可能な観測所は地図上に黄色い丸と赤い丸で示す。

丸の上にカーソルを重ねると観測所名を参照できる。

次にクリックすると気象観測と天気予報を参照できる。

マップの切り替え:黒色「×」印の緑ボタンをクリックして拡大、「-」印の緑ボタンをクリックして縮小、緑色の三角印をクリックして隣りの地図に切り替え


METAR-TAF: